Aktuální počasí v Česku a ve světě - METAR

Seznam meteostanic umístěných nejčasteji na letišti v ČR a ve světě

Vyhledat místa podle abecedy:
A B C D E F G H I J K L M N O P Q R S T U V W X Y Z

Filtrovat:

ID stanice:
a/nebo
Název místa (fulltext):
 
Místo (ID)Naposledy načteno 
Červená - Opava (Cervena/uL) 12.05.2021 14:00 UTC Zobrazit data
Místo: Červená - Opava
Teplota: 22 °C (pocitová: 21.6 °C)
Vítr: 5 m/s z(e) 230°
Počasí: skoro zataženo
Dohlednost: 45 km
Zákl. oblačnosti: 1/8 1230 m;3/8 1260 m
Vlhkost: 47%
České Budějovice (C.Budej/po) 12.05.2021 14:00 UTC Zobrazit data
Místo: České Budějovice
Teplota: 13 °C (pocitová: 10.8 °C)
Vítr: 2 m/s z(e) 190°
Počasí: přeháňky
Dohlednost: 7 km
Zákl. oblačnosti: 3/8 300 m;5/8 450 m
Vlhkost: 94%
Cheb (Cheb) 12.05.2021 14:00 UTC Zobrazit data
Místo: Cheb
Teplota: 11 °C (pocitová: 8.2 °C)
Vítr: 2 m/s z(e) 310°
Počasí: déšť
Dohlednost: 12 km
Zákl. oblačnosti: 8/8 330 m
Vlhkost: 94%
Chotusice - Čáslav (Caslav) 12.05.2021 14:00 UTC Zobrazit data
Místo: Chotusice - Čáslav
Teplota: 16 °C (pocitová: 13.2 °C)
Vítr: 5 m/s z(e) 280°
Počasí: zataženo
Dohlednost: 10 km
Zákl. oblačnosti: 2/8 480 m;5/8 930 m
Vlhkost: 88%
Churáňov (Churanov) 12.05.2021 09:00 UTC Zobrazit data
Místo: Churáňov
Teplota: 8 °C (pocitová: 2.6 °C)
Vítr: 4 m/s z(e) 280°
Počasí: déšť
Dohlednost: 4000 m
Zákl. oblačnosti: 8/8 60 m
Vlhkost: 93%
Cairo (HECA) 12.05.2021 14:00 UTC Zobrazit METAR
HECA 121400Z 34009KT CAVOK 30/10 Q1009 NOSIG
Canberra (YSCB) 12.05.2021 12:00 UTC Zobrazit METAR
YSCB 121200Z AUTO 00000KT 9999 // SCT058 07/06 Q1020
Caracas (SVMP) Zatím nenačteno  
Cayenne (SOCA) 12.05.2021 06:00 UTC Zobrazit METAR
SOCA 120600Z AUTO 26003KT 220V280 9999 FEW028 SCT034 24/23 Q1011 TEMPO 4000 SHRA BKN012 BKN015TCU
Charlotte Amalie (TIST) 12.05.2021 13:53 UTC Zobrazit METAR
TIST 121353Z 09012KT 10SM CLR 29/20 A3009 RMK AO2 SLP188 T02940200
Chisinau (LUKK) 12.05.2021 14:00 UTC Zobrazit METAR
LUKK 121400Z 21008KT 150V240 9999 BKN049 16/06 Q1012 R08/CLRD// NOSIG
Colombo (VCBI) 12.05.2021 13:10 UTC Zobrazit METAR
VCBI 121310Z 25004KT 210V300 9000 SCT016 28/25 Q1007 NOSIG
Conakry (GUCY) 12.05.2021 14:00 UTC Zobrazit METAR
GUCY 121400Z 19008KT 9999 SCT015 BKN110 31/24 Q1013 NOSIG
Constanta (LRCK) 12.05.2021 14:00 UTC Zobrazit METAR
LRCK 121400Z 09016KT CAVOK 16/09 Q1011 NOSIG
Constantine (DABC) 12.05.2021 14:00 UTC Zobrazit METAR
DABC 121400Z 35004KT CAVOK 23/02 Q1018
Copenhagen (EKCH) 12.05.2021 13:50 UTC Zobrazit METAR
EKCH 121350Z 28006KT 250V310 9999 SCT012 BKN015 15/12 Q1007 TEMPO BKN012
Cork (EICK) 12.05.2021 08:00 UTC Zobrazit METAR
EICK 120800Z 20010KT 9999 SCT012 BKN026 BKN046 10/08 Q1004 NOSIG
Cotonou (DBBB) 12.05.2021 13:00 UTC Zobrazit METAR
DBBB 121300Z 24014KT 9999 SCT014 32/25 Q1011 NOSIG
Curacao Island (TNCC) 12.05.2021 14:00 UTC Zobrazit METAR
TNCC 121400Z 10015KT 9999 FEW024 29/22 Q1015 NOSIG
Reklama

Reklama


Newslettter

Počasí na Váš email

Emaily jsou bez reklamy a bez spamu



Odhlásit newsletter





Zpravodajství o počasí z ČR i ze světa | Aktuálně na Webkamery Slunečno.cz

Všechny články

Další české internetové stránky (nejen) o počasí najdete v katalogu TOPlist - weby o počasí nebo vyhledejte na internetu, co jste tu na Počasí Slunečno Slunečnu zatím nenašli:
Přidat mezzi oblíbené stránkyPřidat Slunečno.cz do oblíbených | Nastavit jako HOMEPAGENastavit Slunečno.cz jako HOMEPAGE

Posunout stránku nahoru Posunout stránku nahoru Posunout stránku nahoru
Reklama